sensor_id;sensor_type;location;lat;lon;timestamp;P1;durP1;ratioP1;P2;durP2;ratioP2
13455;SDS011;6800;50.940;6.940;2023-05-20T00:00:24;3.40;;;3.10;;
13455;SDS011;6800;50.940;6.940;2023-05-20T00:04:26;4.07;;;2.93;;
13455;SDS011;6800;50.940;6.940;2023-05-20T00:08:27;4.50;;;3.70;;
13455;SDS011;6800;50.940;6.940;2023-05-20T00:12:29;3.80;;;3.03;;
13455;SDS011;6800;50.940;6.940;2023-05-20T00:16:30;3.73;;;3.20;;
13455;SDS011;6800;50.940;6.940;2023-05-20T00:20:32;4.97;;;2.90;;
13455;SDS011;6800;50.940;6.940;2023-05-20T00:24:33;4.57;;;3.73;;
13455;SDS011;6800;50.940;6.940;2023-05-20T00:28:35;6.43;;;4.20;;
13455;SDS011;6800;50.940;6.940;2023-05-20T00:32:36;5.10;;;4.60;;
13455;SDS011;6800;50.940;6.940;2023-05-20T00:36:38;5.10;;;3.90;;
13455;SDS011;6800;50.940;6.940;2023-05-20T00:40:39;5.93;;;3.73;;
13455;SDS011;6800;50.940;6.940;2023-05-20T00:44:41;5.27;;;3.30;;
13455;SDS011;6800;50.940;6.940;2023-05-20T00:48:42;4.60;;;2.90;;
13455;SDS011;6800;50.940;6.940;2023-05-20T00:52:44;5.17;;;2.47;;
13455;SDS011;6800;50.940;6.940;2023-05-20T00:56:48;3.43;;;2.60;;
13455;SDS011;6800;50.940;6.940;2023-05-20T01:00:49;3.00;;;1.87;;
13455;SDS011;6800;50.940;6.940;2023-05-20T01:04:51;5.50;;;2.33;;
13455;SDS011;6800;50.940;6.940;2023-05-20T01:08:53;4.10;;;2.20;;
13455;SDS011;6800;50.940;6.940;2023-05-20T01:12:56;2.53;;;1.90;;
13455;SDS011;6800;50.940;6.940;2023-05-20T01:17:01;4.07;;;2.40;;
13455;SDS011;6800;50.940;6.940;2023-05-20T01:21:10;2.77;;;2.40;;
13455;SDS011;6800;50.940;6.940;2023-05-20T01:25:12;2.67;;;2.20;;
13455;SDS011;6800;50.940;6.940;2023-05-20T01:29:14;3.70;;;1.60;;
13455;SDS011;6800;50.940;6.940;2023-05-20T01:33:19;3.30;;;2.30;;
13455;SDS011;6800;50.940;6.940;2023-05-20T01:37:23;3.87;;;2.60;;
13455;SDS011;6800;50.940;6.940;2023-05-20T01:41:26;3.90;;;3.07;;
13455;SDS011;6800;50.940;6.940;2023-05-20T01:45:29;3.60;;;3.30;;
13455;SDS011;6800;50.940;6.940;2023-05-20T01:49:31;4.53;;;3.20;;
13455;SDS011;6800;50.940;6.940;2023-05-20T01:53:33;3.60;;;3.40;;
13455;SDS011;6800;50.940;6.940;2023-05-20T01:57:34;4.33;;;3.23;;
13455;SDS011;6800;50.940;6.940;2023-05-20T02:01:36;3.70;;;3.40;;
13455;SDS011;6800;50.940;6.940;2023-05-20T02:05:37;4.87;;;3.50;;
13455;SDS011;6800;50.940;6.940;2023-05-20T02:09:39;3.60;;;3.30;;
13455;SDS011;6800;50.940;6.940;2023-05-20T02:13:40;4.00;;;3.60;;
13455;SDS011;6800;50.940;6.940;2023-05-20T02:17:42;3.67;;;3.27;;
13455;SDS011;6800;50.940;6.940;2023-05-20T02:21:43;4.33;;;3.63;;
13455;SDS011;6800;50.940;6.940;2023-05-20T02:25:47;3.67;;;3.37;;
13455;SDS011;6800;50.940;6.940;2023-05-20T02:29:48;3.57;;;3.27;;
13455;SDS011;6800;50.940;6.940;2023-05-20T02:33:49;5.10;;;3.70;;
13455;SDS011;6800;50.940;6.940;2023-05-20T02:37:51;3.87;;;3.57;;
13455;SDS011;6800;50.940;6.940;2023-05-20T02:41:53;4.23;;;3.83;;
13455;SDS011;6800;50.940;6.940;2023-05-20T02:45:54;4.60;;;4.20;;
13455;SDS011;6800;50.940;6.940;2023-05-20T02:49:56;4.13;;;3.80;;
13455;SDS011;6800;50.940;6.940;2023-05-20T02:53:58;3.50;;;3.20;;
13455;SDS011;6800;50.940;6.940;2023-05-20T02:57:59;6.53;;;3.80;;
13455;SDS011;6800;50.940;6.940;2023-05-20T03:02:01;4.53;;;4.03;;
13455;SDS011;6800;50.940;6.940;2023-05-20T03:06:03;3.57;;;3.30;;
13455;SDS011;6800;50.940;6.940;2023-05-20T03:10:05;3.87;;;3.57;;
13455;SDS011;6800;50.940;6.940;2023-05-20T03:14:08;3.33;;;3.13;;
13455;SDS011;6800;50.940;6.940;2023-05-20T03:18:09;4.13;;;3.73;;
13455;SDS011;6800;50.940;6.940;2023-05-20T03:22:12;3.30;;;3.00;;
13455;SDS011;6800;50.940;6.940;2023-05-20T03:26:14;6.20;;;3.80;;
13455;SDS011;6800;50.940;6.940;2023-05-20T03:30:15;3.70;;;3.40;;
13455;SDS011;6800;50.940;6.940;2023-05-20T03:34:16;4.00;;;3.70;;
13455;SDS011;6800;50.940;6.940;2023-05-20T03:38:18;4.10;;;3.80;;
13455;SDS011;6800;50.940;6.940;2023-05-20T03:42:19;4.23;;;3.63;;
13455;SDS011;6800;50.940;6.940;2023-05-20T03:46:21;4.67;;;3.70;;
13455;SDS011;6800;50.940;6.940;2023-05-20T03:50:22;4.17;;;3.87;;
13455;SDS011;6800;50.940;6.940;2023-05-20T03:54:23;4.30;;;3.93;;
13455;SDS011;6800;50.940;6.940;2023-05-20T03:58:25;4.93;;;3.70;;
13455;SDS011;6800;50.940;6.940;2023-05-20T04:02:29;3.97;;;3.67;;
13455;SDS011;6800;50.940;6.940;2023-05-20T04:06:31;3.53;;;3.23;;
13455;SDS011;6800;50.940;6.940;2023-05-20T04:10:33;5.80;;;3.53;;
13455;SDS011;6800;50.940;6.940;2023-05-20T04:14:34;3.77;;;3.43;;
13455;SDS011;6800;50.940;6.940;2023-05-20T04:18:35;3.80;;;3.50;;
13455;SDS011;6800;50.940;6.940;2023-05-20T04:22:39;4.30;;;3.93;;
13455;SDS011;6800;50.940;6.940;2023-05-20T04:26:40;4.10;;;3.80;;
13455;SDS011;6800;50.940;6.940;2023-05-20T04:30:42;4.00;;;3.70;;
13455;SDS011;6800;50.940;6.940;2023-05-20T04:34:45;4.20;;;3.47;;
13455;SDS011;6800;50.940;6.940;2023-05-20T04:38:47;4.23;;;3.67;;
13455;SDS011;6800;50.940;6.940;2023-05-20T04:42:49;4.20;;;3.80;;
13455;SDS011;6800;50.940;6.940;2023-05-20T04:46:51;6.93;;;3.40;;
13455;SDS011;6800;50.940;6.940;2023-05-20T04:50:53;4.77;;;4.00;;
13455;SDS011;6800;50.940;6.940;2023-05-20T04:54:56;6.17;;;3.87;;
13455;SDS011;6800;50.940;6.940;2023-05-20T04:58:58;3.73;;;3.30;;
13455;SDS011;6800;50.940;6.940;2023-05-20T05:03:00;3.80;;;3.50;;
13455;SDS011;6800;50.940;6.940;2023-05-20T05:07:01;4.00;;;3.50;;
13455;SDS011;6800;50.940;6.940;2023-05-20T05:11:06;4.17;;;3.27;;
13455;SDS011;6800;50.940;6.940;2023-05-20T05:15:07;5.20;;;3.50;;
13455;SDS011;6800;50.940;6.940;2023-05-20T05:19:09;6.13;;;4.20;;
13455;SDS011;6800;50.940;6.940;2023-05-20T05:23:11;4.90;;;3.73;;
13455;SDS011;6800;50.940;6.940;2023-05-20T05:27:12;10.03;;;4.00;;
13455;SDS011;6800;50.940;6.940;2023-05-20T05:31:13;6.77;;;3.90;;
13455;SDS011;6800;50.940;6.940;2023-05-20T05:35:15;17.53;;;5.37;;
13455;SDS011;6800;50.940;6.940;2023-05-20T05:39:16;4.10;;;3.40;;
13455;SDS011;6800;50.940;6.940;2023-05-20T05:43:18;4.33;;;3.30;;
13455;SDS011;6800;50.940;6.940;2023-05-20T05:47:20;6.40;;;3.77;;
13455;SDS011;6800;50.940;6.940;2023-05-20T05:51:21;5.43;;;3.60;;
13455;SDS011;6800;50.940;6.940;2023-05-20T05:55:24;5.13;;;3.43;;
13455;SDS011;6800;50.940;6.940;2023-05-20T05:59:26;5.03;;;3.50;;
13455;SDS011;6800;50.940;6.940;2023-05-20T06:03:27;4.55;;;3.42;;
13455;SDS011;6800;50.940;6.940;2023-05-20T06:07:30;4.05;;;3.63;;
13455;SDS011;6800;50.940;6.940;2023-05-20T06:11:31;4.47;;;3.40;;
13455;SDS011;6800;50.940;6.940;2023-05-20T06:15:33;3.77;;;3.47;;
13455;SDS011;6800;50.940;6.940;2023-05-20T06:19:35;3.77;;;3.40;;
13455;SDS011;6800;50.940;6.940;2023-05-20T06:23:36;4.10;;;3.20;;
13455;SDS011;6800;50.940;6.940;2023-05-20T06:27:38;3.70;;;3.40;;
13455;SDS011;6800;50.940;6.940;2023-05-20T06:31:39;3.80;;;3.50;;
13455;SDS011;6800;50.940;6.940;2023-05-20T06:35:41;3.70;;;3.40;;
13455;SDS011;6800;50.940;6.940;2023-05-20T06:39:42;3.60;;;3.30;;
13455;SDS011;6800;50.940;6.940;2023-05-20T06:43:45;4.40;;;3.43;;
13455;SDS011;6800;50.940;6.940;2023-05-20T06:47:46;4.30;;;3.30;;
13455;SDS011;6800;50.940;6.940;2023-05-20T06:51:50;5.30;;;3.73;;
13455;SDS011;6800;50.940;6.940;2023-05-20T06:55:52;3.77;;;3.47;;
13455;SDS011;6800;50.940;6.940;2023-05-20T06:59:55;3.90;;;3.50;;
13455;SDS011;6800;50.940;6.940;2023-05-20T07:03:58;3.40;;;3.10;;
13455;SDS011;6800;50.940;6.940;2023-05-20T07:07:59;4.00;;;3.30;;
13455;SDS011;6800;50.940;6.940;2023-05-20T07:12:01;3.77;;;3.10;;
13455;SDS011;6800;50.940;6.940;2023-05-20T07:16:02;3.95;;;3.50;;
13455;SDS011;6800;50.940;6.940;2023-05-20T07:20:04;4.35;;;2.80;;
13455;SDS011;6800;50.940;6.940;2023-05-20T07:24:06;4.55;;;3.40;;
13455;SDS011;6800;50.940;6.940;2023-05-20T07:28:07;4.03;;;3.00;;
13455;SDS011;6800;50.940;6.940;2023-05-20T07:32:09;3.95;;;3.10;;
13455;SDS011;6800;50.940;6.940;2023-05-20T07:36:10;5.00;;;3.28;;
13455;SDS011;6800;50.940;6.940;2023-05-20T07:40:12;4.65;;;3.20;;
13455;SDS011;6800;50.940;6.940;2023-05-20T07:44:14;3.67;;;2.70;;
13455;SDS011;6800;50.940;6.940;2023-05-20T07:48:16;3.20;;;2.90;;
13455;SDS011;6800;50.940;6.940;2023-05-20T07:52:17;3.72;;;3.20;;
13455;SDS011;6800;50.940;6.940;2023-05-20T07:56:19;4.25;;;3.10;;
13455;SDS011;6800;50.940;6.940;2023-05-20T08:00:20;4.53;;;3.42;;
13455;SDS011;6800;50.940;6.940;2023-05-20T08:04:21;3.42;;;3.13;;
13455;SDS011;6800;50.940;6.940;2023-05-20T08:08:23;4.57;;;2.97;;
13455;SDS011;6800;50.940;6.940;2023-05-20T08:12:24;3.50;;;3.20;;
13455;SDS011;6800;50.940;6.940;2023-05-20T08:16:26;4.10;;;3.20;;
13455;SDS011;6800;50.940;6.940;2023-05-20T08:20:28;3.38;;;3.08;;
13455;SDS011;6800;50.940;6.940;2023-05-20T08:24:29;5.10;;;3.45;;
13455;SDS011;6800;50.940;6.940;2023-05-20T08:28:31;3.90;;;3.38;;
13455;SDS011;6800;50.940;6.940;2023-05-20T08:32:32;4.32;;;3.38;;
13455;SDS011;6800;50.940;6.940;2023-05-20T08:36:34;3.42;;;3.13;;
13455;SDS011;6800;50.940;6.940;2023-05-20T08:40:35;3.35;;;3.05;;
13455;SDS011;6800;50.940;6.940;2023-05-20T08:44:37;3.30;;;3.00;;
13455;SDS011;6800;50.940;6.940;2023-05-20T08:48:39;3.90;;;3.05;;
13455;SDS011;6800;50.940;6.940;2023-05-20T08:52:44;4.55;;;3.53;;
13455;SDS011;6800;50.940;6.940;2023-05-20T08:56:46;3.65;;;3.35;;
13455;SDS011;6800;50.940;6.940;2023-05-20T09:00:48;4.30;;;3.60;;
13455;SDS011;6800;50.940;6.940;2023-05-20T09:04:50;3.25;;;3.05;;
13455;SDS011;6800;50.940;6.940;2023-05-20T09:08:52;3.40;;;3.10;;
13455;SDS011;6800;50.940;6.940;2023-05-20T09:12:53;3.00;;;2.80;;
13455;SDS011;6800;50.940;6.940;2023-05-20T09:16:55;3.90;;;3.40;;
13455;SDS011;6800;50.940;6.940;2023-05-20T09:20:57;5.53;;;3.53;;
13455;SDS011;6800;50.940;6.940;2023-05-20T09:24:58;5.90;;;3.13;;
13455;SDS011;6800;50.940;6.940;2023-05-20T09:29:00;4.18;;;3.40;;
13455;SDS011;6800;50.940;6.940;2023-05-20T09:33:02;4.03;;;3.30;;
13455;SDS011;6800;50.940;6.940;2023-05-20T09:37:05;4.32;;;3.30;;
13455;SDS011;6800;50.940;6.940;2023-05-20T09:41:09;3.40;;;3.10;;
13455;SDS011;6800;50.940;6.940;2023-05-20T09:45:12;3.65;;;3.05;;
13455;SDS011;6800;50.940;6.940;2023-05-20T09:49:13;4.60;;;3.28;;
13455;SDS011;6800;50.940;6.940;2023-05-20T09:53:16;3.50;;;3.20;;
13455;SDS011;6800;50.940;6.940;2023-05-20T09:57:18;3.28;;;2.85;;
13455;SDS011;6800;50.940;6.940;2023-05-20T10:01:20;3.20;;;2.90;;
13455;SDS011;6800;50.940;6.940;2023-05-20T10:05:23;3.03;;;2.80;;
13455;SDS011;6800;50.940;6.940;2023-05-20T10:09:33;3.30;;;3.00;;
13455;SDS011;6800;50.940;6.940;2023-05-20T10:22:38;3.35;;;3.05;;
13455;SDS011;6800;50.940;6.940;2023-05-20T10:26:42;3.15;;;2.95;;
13455;SDS011;6800;50.940;6.940;2023-05-20T10:30:48;3.58;;;3.28;;
13455;SDS011;6800;50.940;6.940;2023-05-20T10:34:50;3.47;;;3.17;;
13455;SDS011;6800;50.940;6.940;2023-05-20T10:38:53;5.00;;;3.65;;
13455;SDS011;6800;50.940;6.940;2023-05-20T10:43:07;3.42;;;3.13;;
13455;SDS011;6800;50.940;6.940;2023-05-20T10:47:15;3.30;;;3.00;;
13455;SDS011;6800;50.940;6.940;2023-05-20T10:51:27;3.30;;;2.97;;
13455;SDS011;6800;50.940;6.940;2023-05-20T10:55:36;4.60;;;3.20;;
13455;SDS011;6800;50.940;6.940;2023-05-20T10:59:41;3.60;;;3.30;;
13455;SDS011;6800;50.940;6.940;2023-05-20T11:03:44;4.15;;;3.80;;
13455;SDS011;6800;50.940;6.940;2023-05-20T11:07:49;5.55;;;3.67;;
13455;SDS011;6800;50.940;6.940;2023-05-20T11:11:51;4.40;;;3.97;;
13455;SDS011;6800;50.940;6.940;2023-05-20T11:15:54;3.90;;;3.40;;
13455;SDS011;6800;50.940;6.940;2023-05-20T11:19:55;4.28;;;3.50;;
13455;SDS011;6800;50.940;6.940;2023-05-20T11:24:01;4.65;;;3.72;;
13455;SDS011;6800;50.940;6.940;2023-05-20T11:28:02;3.95;;;3.60;;
13455;SDS011;6800;50.940;6.940;2023-05-20T11:32:04;4.75;;;3.63;;
13455;SDS011;6800;50.940;6.940;2023-05-20T11:36:06;4.10;;;3.50;;
13455;SDS011;6800;50.940;6.940;2023-05-20T11:40:27;4.15;;;3.85;;
13455;SDS011;6800;50.940;6.940;2023-05-20T11:44:46;4.22;;;3.83;;
13455;SDS011;6800;50.940;6.940;2023-05-20T11:48:52;4.28;;;3.85;;
13455;SDS011;6800;50.940;6.940;2023-05-20T11:52:58;4.57;;;4.18;;
13455;SDS011;6800;50.940;6.940;2023-05-20T11:57:00;5.65;;;4.13;;
13455;SDS011;6800;50.940;6.940;2023-05-20T12:01:02;4.22;;;3.90;;
13455;SDS011;6800;50.940;6.940;2023-05-20T12:05:22;4.82;;;4.05;;
13455;SDS011;6800;50.940;6.940;2023-05-20T12:09:23;5.47;;;4.40;;
13455;SDS011;6800;50.940;6.940;2023-05-20T12:13:25;7.50;;;4.35;;
13455;SDS011;6800;50.940;6.940;2023-05-20T12:17:26;5.38;;;3.83;;
13455;SDS011;6800;50.940;6.940;2023-05-20T12:21:28;5.72;;;5.07;;
13455;SDS011;6800;50.940;6.940;2023-05-20T12:25:29;5.18;;;4.70;;
13455;SDS011;6800;50.940;6.940;2023-05-20T12:29:31;7.68;;;4.53;;
13455;SDS011;6800;50.940;6.940;2023-05-20T12:33:33;5.13;;;4.63;;
13455;SDS011;6800;50.940;6.940;2023-05-20T12:37:35;5.35;;;4.85;;
13455;SDS011;6800;50.940;6.940;2023-05-20T12:41:37;6.18;;;4.28;;
13455;SDS011;6800;50.940;6.940;2023-05-20T12:45:38;4.75;;;4.20;;
13455;SDS011;6800;50.940;6.940;2023-05-20T12:49:40;5.75;;;4.15;;
13455;SDS011;6800;50.940;6.940;2023-05-20T12:53:41;4.90;;;4.40;;
13455;SDS011;6800;50.940;6.940;2023-05-20T12:57:43;4.95;;;4.45;;
13455;SDS011;6800;50.940;6.940;2023-05-20T13:01:47;4.80;;;4.40;;
13455;SDS011;6800;50.940;6.940;2023-05-20T13:05:48;4.75;;;4.18;;
13455;SDS011;6800;50.940;6.940;2023-05-20T13:09:49;5.05;;;4.53;;
13455;SDS011;6800;50.940;6.940;2023-05-20T13:13:53;4.65;;;4.25;;
13455;SDS011;6800;50.940;6.940;2023-05-20T13:17:56;4.57;;;4.18;;
13455;SDS011;6800;50.940;6.940;2023-05-20T13:21:59;5.30;;;4.72;;
13455;SDS011;6800;50.940;6.940;2023-05-20T13:26:00;4.50;;;4.10;;
13455;SDS011;6800;50.940;6.940;2023-05-20T13:30:02;5.03;;;4.30;;
13455;SDS011;6800;50.940;6.940;2023-05-20T13:34:06;5.10;;;4.60;;
13455;SDS011;6800;50.940;6.940;2023-05-20T13:38:08;4.70;;;4.22;;
13455;SDS011;6800;50.940;6.940;2023-05-20T13:42:10;4.30;;;3.95;;
13455;SDS011;6800;50.940;6.940;2023-05-20T13:46:11;5.47;;;4.45;;
13455;SDS011;6800;50.940;6.940;2023-05-20T13:50:13;5.55;;;4.70;;
13455;SDS011;6800;50.940;6.940;2023-05-20T13:54:14;5.10;;;4.70;;
13455;SDS011;6800;50.940;6.940;2023-05-20T13:58:16;6.07;;;4.88;;
13455;SDS011;6800;50.940;6.940;2023-05-20T14:02:17;5.20;;;4.70;;
13455;SDS011;6800;50.940;6.940;2023-05-20T14:06:19;5.35;;;4.85;;
13455;SDS011;6800;50.940;6.940;2023-05-20T14:10:21;4.70;;;4.30;;
13455;SDS011;6800;50.940;6.940;2023-05-20T14:14:22;6.90;;;4.43;;
13455;SDS011;6800;50.940;6.940;2023-05-20T14:18:23;5.47;;;4.72;;
13455;SDS011;6800;50.940;6.940;2023-05-20T14:22:25;5.13;;;4.63;;
13455;SDS011;6800;50.940;6.940;2023-05-20T14:26:26;7.22;;;4.90;;
13455;SDS011;6800;50.940;6.940;2023-05-20T14:30:28;6.00;;;5.10;;
13455;SDS011;6800;50.940;6.940;2023-05-20T14:34:30;4.85;;;4.35;;
13455;SDS011;6800;50.940;6.940;2023-05-20T14:38:31;5.63;;;4.70;;
13455;SDS011;6800;50.940;6.940;2023-05-20T14:42:33;4.45;;;4.05;;
13455;SDS011;6800;50.940;6.940;2023-05-20T14:46:34;4.75;;;3.88;;
13455;SDS011;6800;50.940;6.940;2023-05-20T14:50:36;4.75;;;4.35;;
13455;SDS011;6800;50.940;6.940;2023-05-20T14:54:38;7.15;;;6.18;;
13455;SDS011;6800;50.940;6.940;2023-05-20T14:58:39;4.78;;;4.38;;
13455;SDS011;6800;50.940;6.940;2023-05-20T15:02:41;5.53;;;4.63;;
13455;SDS011;6800;50.940;6.940;2023-05-20T15:06:43;5.07;;;4.57;;
13455;SDS011;6800;50.940;6.940;2023-05-20T15:10:44;4.28;;;3.88;;
13455;SDS011;6800;50.940;6.940;2023-05-20T15:14:46;4.50;;;4.10;;
13455;SDS011;6800;50.940;6.940;2023-05-20T15:18:47;4.60;;;4.20;;
13455;SDS011;6800;50.940;6.940;2023-05-20T15:22:48;7.13;;;4.68;;
13455;SDS011;6800;50.940;6.940;2023-05-20T15:26:51;4.60;;;3.75;;
13455;SDS011;6800;50.940;6.940;2023-05-20T15:30:53;4.32;;;3.92;;
13455;SDS011;6800;50.940;6.940;2023-05-20T15:34:56;4.75;;;4.28;;
13455;SDS011;6800;50.940;6.940;2023-05-20T15:38:57;5.38;;;4.13;;
13455;SDS011;6800;50.940;6.940;2023-05-20T15:42:59;5.55;;;4.25;;
13455;SDS011;6800;50.940;6.940;2023-05-20T15:47:00;5.53;;;4.28;;
13455;SDS011;6800;50.940;6.940;2023-05-20T15:51:02;4.05;;;3.72;;
13455;SDS011;6800;50.940;6.940;2023-05-20T15:55:04;5.30;;;3.72;;
13455;SDS011;6800;50.940;6.940;2023-05-20T15:59:06;4.10;;;3.53;;
13455;SDS011;6800;50.940;6.940;2023-05-20T16:03:08;4.55;;;4.15;;
13455;SDS011;6800;50.940;6.940;2023-05-20T16:07:11;4.65;;;3.80;;
13455;SDS011;6800;50.940;6.940;2023-05-20T16:11:13;4.50;;;4.03;;
13455;SDS011;6800;50.940;6.940;2023-05-20T16:15:14;5.60;;;5.10;;
13455;SDS011;6800;50.940;6.940;2023-05-20T16:19:16;7.43;;;5.25;;
13455;SDS011;6800;50.940;6.940;2023-05-20T16:23:18;5.53;;;5.03;;
13455;SDS011;6800;50.940;6.940;2023-05-20T16:27:19;4.97;;;4.47;;
13455;SDS011;6800;50.940;6.940;2023-05-20T16:31:21;7.55;;;4.97;;
13455;SDS011;6800;50.940;6.940;2023-05-20T16:35:23;6.68;;;5.63;;
13455;SDS011;6800;50.940;6.940;2023-05-20T16:39:24;6.63;;;5.68;;
13455;SDS011;6800;50.940;6.940;2023-05-20T16:43:26;5.18;;;4.78;;
13455;SDS011;6800;50.940;6.940;2023-05-20T16:47:28;5.15;;;4.65;;
13455;SDS011;6800;50.940;6.940;2023-05-20T16:51:29;4.97;;;4.63;;
13455;SDS011;6800;50.940;6.940;2023-05-20T16:55:31;5.57;;;5.03;;
13455;SDS011;6800;50.940;6.940;2023-05-20T16:59:32;6.30;;;5.45;;
13455;SDS011;6800;50.940;6.940;2023-05-20T17:03:35;5.28;;;4.78;;
13455;SDS011;6800;50.940;6.940;2023-05-20T17:07:36;5.43;;;4.93;;
13455;SDS011;6800;50.940;6.940;2023-05-20T17:11:38;6.15;;;5.22;;
13455;SDS011;6800;50.940;6.940;2023-05-20T17:15:39;7.45;;;6.13;;
13455;SDS011;6800;50.940;6.940;2023-05-20T17:19:41;6.57;;;5.80;;
13455;SDS011;6800;50.940;6.940;2023-05-20T17:23:42;6.03;;;5.43;;
13455;SDS011;6800;50.940;6.940;2023-05-20T17:27:44;6.80;;;4.82;;
13455;SDS011;6800;50.940;6.940;2023-05-20T17:31:45;5.93;;;5.38;;
13455;SDS011;6800;50.940;6.940;2023-05-20T17:35:47;8.18;;;6.18;;
13455;SDS011;6800;50.940;6.940;2023-05-20T17:39:48;6.93;;;6.32;;
13455;SDS011;6800;50.940;6.940;2023-05-20T17:43:50;8.27;;;6.47;;
13455;SDS011;6800;50.940;6.940;2023-05-20T17:47:51;6.82;;;6.22;;
13455;SDS011;6800;50.940;6.940;2023-05-20T17:51:53;5.88;;;5.28;;
13455;SDS011;6800;50.940;6.940;2023-05-20T17:55:54;7.47;;;5.90;;
13455;SDS011;6800;50.940;6.940;2023-05-20T17:59:56;7.15;;;5.93;;
13455;SDS011;6800;50.940;6.940;2023-05-20T18:03:58;6.15;;;5.55;;
13455;SDS011;6800;50.940;6.940;2023-05-20T18:08:04;5.90;;;5.25;;
13455;SDS011;6800;50.940;6.940;2023-05-20T18:12:05;6.13;;;5.47;;
13455;SDS011;6800;50.940;6.940;2023-05-20T18:16:07;8.18;;;5.25;;
13455;SDS011;6800;50.940;6.940;2023-05-20T18:20:09;7.20;;;6.50;;
13455;SDS011;6800;50.940;6.940;2023-05-20T18:24:12;8.38;;;6.78;;
13455;SDS011;6800;50.940;6.940;2023-05-20T18:28:16;6.28;;;5.68;;
13455;SDS011;6800;50.940;6.940;2023-05-20T18:32:18;6.07;;;5.53;;
13455;SDS011;6800;50.940;6.940;2023-05-20T18:36:20;6.38;;;5.75;;
13455;SDS011;6800;50.940;6.940;2023-05-20T18:40:21;6.47;;;5.40;;
13455;SDS011;6800;50.940;6.940;2023-05-20T18:44:23;7.05;;;5.97;;
13455;SDS011;6800;50.940;6.940;2023-05-20T18:48:25;8.13;;;6.93;;
13455;SDS011;6800;50.940;6.940;2023-05-20T18:52:27;7.68;;;6.88;;
13455;SDS011;6800;50.940;6.940;2023-05-20T18:56:29;5.95;;;5.45;;
13455;SDS011;6800;50.940;6.940;2023-05-20T19:00:32;7.55;;;6.20;;
13455;SDS011;6800;50.940;6.940;2023-05-20T19:04:34;6.38;;;5.75;;
13455;SDS011;6800;50.940;6.940;2023-05-20T19:08:36;7.97;;;7.17;;
13455;SDS011;6800;50.940;6.940;2023-05-20T19:12:37;6.32;;;5.72;;
13455;SDS011;6800;50.940;6.940;2023-05-20T19:16:39;8.15;;;7.40;;
13455;SDS011;6800;50.940;6.940;2023-05-20T19:20:40;11.43;;;8.02;;
13455;SDS011;6800;50.940;6.940;2023-05-20T19:24:42;9.18;;;7.15;;
13455;SDS011;6800;50.940;6.940;2023-05-20T19:28:43;7.55;;;6.90;;
13455;SDS011;6800;50.940;6.940;2023-05-20T19:32:45;7.45;;;6.75;;
13455;SDS011;6800;50.940;6.940;2023-05-20T19:36:47;8.13;;;7.32;;
13455;SDS011;6800;50.940;6.940;2023-05-20T19:40:48;7.80;;;7.00;;
13455;SDS011;6800;50.940;6.940;2023-05-20T19:44:50;7.90;;;7.00;;
13455;SDS011;6800;50.940;6.940;2023-05-20T19:48:51;7.40;;;6.60;;
13455;SDS011;6800;50.940;6.940;2023-05-20T19:52:53;7.33;;;6.63;;
13455;SDS011;6800;50.940;6.940;2023-05-20T19:56:54;7.80;;;7.10;;
13455;SDS011;6800;50.940;6.940;2023-05-20T20:00:56;7.53;;;6.93;;
13455;SDS011;6800;50.940;6.940;2023-05-20T20:04:57;7.53;;;6.83;;
13455;SDS011;6800;50.940;6.940;2023-05-20T20:08:59;8.20;;;6.93;;
13455;SDS011;6800;50.940;6.940;2023-05-20T20:13:01;10.80;;;8.33;;
13455;SDS011;6800;50.940;6.940;2023-05-20T20:17:03;9.70;;;8.70;;
13455;SDS011;6800;50.940;6.940;2023-05-20T20:21:06;8.63;;;7.73;;
13455;SDS011;6800;50.940;6.940;2023-05-20T20:25:09;9.40;;;7.30;;
13455;SDS011;6800;50.940;6.940;2023-05-20T20:29:13;8.53;;;7.73;;
13455;SDS011;6800;50.940;6.940;2023-05-20T20:33:15;10.77;;;8.13;;
13455;SDS011;6800;50.940;6.940;2023-05-20T20:37:17;9.43;;;8.50;;
13455;SDS011;6800;50.940;6.940;2023-05-20T20:41:18;9.60;;;8.70;;
13455;SDS011;6800;50.940;6.940;2023-05-20T20:45:20;10.03;;;9.03;;
13455;SDS011;6800;50.940;6.940;2023-05-20T20:49:22;8.90;;;8.10;;
13455;SDS011;6800;50.940;6.940;2023-05-20T20:53:27;10.27;;;9.27;;
13455;SDS011;6800;50.940;6.940;2023-05-20T20:57:28;10.47;;;9.47;;
13455;SDS011;6800;50.940;6.940;2023-05-20T21:01:32;10.17;;;9.27;;
13455;SDS011;6800;50.940;6.940;2023-05-20T21:05:38;12.20;;;10.70;;
13455;SDS011;6800;50.940;6.940;2023-05-20T21:09:39;11.17;;;10.07;;
13455;SDS011;6800;50.940;6.940;2023-05-20T21:13:41;10.77;;;9.77;;
13455;SDS011;6800;50.940;6.940;2023-05-20T21:17:42;9.90;;;8.90;;
13455;SDS011;6800;50.940;6.940;2023-05-20T21:21:43;10.97;;;9.97;;
13455;SDS011;6800;50.940;6.940;2023-05-20T21:25:45;11.07;;;10.00;;
13455;SDS011;6800;50.940;6.940;2023-05-20T21:29:47;10.93;;;9.93;;
13455;SDS011;6800;50.940;6.940;2023-05-20T21:33:50;12.33;;;10.93;;
13455;SDS011;6800;50.940;6.940;2023-05-20T21:37:52;11.90;;;10.60;;
13455;SDS011;6800;50.940;6.940;2023-05-20T21:41:53;11.03;;;9.90;;
13455;SDS011;6800;50.940;6.940;2023-05-20T21:45:55;13.90;;;11.33;;
13455;SDS011;6800;50.940;6.940;2023-05-20T21:49:56;12.67;;;11.50;;
13455;SDS011;6800;50.940;6.940;2023-05-20T21:53:58;12.37;;;11.07;;
13455;SDS011;6800;50.940;6.940;2023-05-20T21:57:59;11.17;;;10.17;;
13455;SDS011;6800;50.940;6.940;2023-05-20T22:02:00;12.70;;;11.43;;
13455;SDS011;6800;50.940;6.940;2023-05-20T22:06:02;14.33;;;12.93;;
13455;SDS011;6800;50.940;6.940;2023-05-20T22:10:05;12.97;;;11.67;;
13455;SDS011;6800;50.940;6.940;2023-05-20T22:14:06;13.43;;;12.13;;
13455;SDS011;6800;50.940;6.940;2023-05-20T22:18:08;13.27;;;11.77;;
13455;SDS011;6800;50.940;6.940;2023-05-20T22:22:09;13.37;;;12.00;;
13455;SDS011;6800;50.940;6.940;2023-05-20T22:26:11;13.23;;;11.93;;
13455;SDS011;6800;50.940;6.940;2023-05-20T22:30:12;13.23;;;11.43;;
13455;SDS011;6800;50.940;6.940;2023-05-20T22:34:14;13.43;;;12.07;;
13455;SDS011;6800;50.940;6.940;2023-05-20T22:38:15;14.57;;;13.13;;
13455;SDS011;6800;50.940;6.940;2023-05-20T22:42:17;12.50;;;11.40;;
13455;SDS011;6800;50.940;6.940;2023-05-20T22:46:18;13.73;;;12.53;;
13455;SDS011;6800;50.940;6.940;2023-05-20T22:50:20;15.47;;;13.97;;
13455;SDS011;6800;50.940;6.940;2023-05-20T22:54:21;13.50;;;12.20;;
13455;SDS011;6800;50.940;6.940;2023-05-20T22:58:22;13.77;;;12.40;;
13455;SDS011;6800;50.940;6.940;2023-05-20T23:02:24;14.13;;;12.73;;
13455;SDS011;6800;50.940;6.940;2023-05-20T23:06:26;13.87;;;12.53;;
13455;SDS011;6800;50.940;6.940;2023-05-20T23:10:27;15.90;;;14.20;;
13455;SDS011;6800;50.940;6.940;2023-05-20T23:14:29;15.47;;;13.97;;
13455;SDS011;6800;50.940;6.940;2023-05-20T23:18:30;17.17;;;13.67;;
13455;SDS011;6800;50.940;6.940;2023-05-20T23:22:33;16.67;;;14.67;;
13455;SDS011;6800;50.940;6.940;2023-05-20T23:26:34;14.80;;;13.23;;
13455;SDS011;6800;50.940;6.940;2023-05-20T23:30:38;15.30;;;13.80;;
13455;SDS011;6800;50.940;6.940;2023-05-20T23:34:39;15.13;;;13.07;;
13455;SDS011;6800;50.940;6.940;2023-05-20T23:38:41;15.60;;;13.60;;
13455;SDS011;6800;50.940;6.940;2023-05-20T23:42:42;15.77;;;13.53;;
13455;SDS011;6800;50.940;6.940;2023-05-20T23:46:44;16.50;;;14.83;;
13455;SDS011;6800;50.940;6.940;2023-05-20T23:50:45;16.47;;;14.43;;
13455;SDS011;6800;50.940;6.940;2023-05-20T23:54:46;16.20;;;14.57;;
13455;SDS011;6800;50.940;6.940;2023-05-20T23:58:48;18.70;;;16.70;;
